Fargo, ND (58102)

6:45 PM CDT on September 27, 2016 (GMT -0500)
North Fargo | | Change Station
Active Advisory: Frost Advisory

Elev 899 ft 46.91 °N, 96.79 °W | Updated 18 seconds ago

Clear
Clear
0.0 °F
Feels Like 0.0 °F
N
0.0
Wind Variable Wind from North
Gusts 0.0 mph

Today
High -- | Low -- °F
--% Chance of Precip.
Yesterday
High -- | Low -- °F
Precip. -- in
Pressure 29.92 in
Visibility 10.0 miles
Clouds Clear
Dew Point Not available.
Humidity Not available.
Rainfall in
Snow Depth Not available.
7:21 AM 7:13 PM
Waning Crescent, 9% visible
METAR KFAR 272253Z 02012G19KT 10SM CLR 16/05 A2990 RMK AO2 SLP130 T01560050
Pressure 29.92 in
Visibility 10.0 miles
Clouds Clear
Dew Point Not available.
Humidity Not available.
Rainfall in
Snow Depth Not available.
7:21 AM 7:13 PM
Waning Crescent, 9% visible
METAR KFAR 272253Z 02012G19KT 10SM CLR 16/05 A2990 RMK AO2 SLP130 T01560050

10-Day Weather Forecast

Almanac

Astronomy

Sep. 27, 2016 Rise Set
Actual Time
Civil Twilight
Nautical Twilight
Astronomical Twilight
Moon
Length of Visible Light
Length of Day
Tomorrow will be .
, % of the Moon is Illuminated

Today's Extremes

State Highs State Lows

Community

WunderPhotos

Upload Photos

1,942,179 photos uploaded!

WunderBlog® & News

Nearby

Air Quality

  Air Quality AQ Index Pollutant
Not available.

Snow Depth

Station Depth Elevation

Earthquake Activity

City Distance Mag. Time & Date
Minimum magnitude displayed is 2.5.

Coastal Water Temperatures

Place Temperature

Stations

Nearby Weather Stations

Station Location Temp. Windchill Dew Point Humidity Wind Precip. Elev Updated Type
                   

Watches & Warnings

Frost Advisory
Issued: 2:21 PM CDT Sep. 27, 2016 – National Weather Service

... Frost advisory in effect from 1 am to 8 am CDT Wednesday...

The National Weather Service in Grand Forks has issued a frost
advisory... which is in effect from 1 am to 8 am CDT Wednesday.

* Temperatures... 33 to 37.

* Timing... late tonight and into Wednesday morning.

Precautionary/preparedness actions...

A frost advisory means that widespread frost is expected.
Sensitive outdoor plants may be killed if left uncovered.